LDPL/PUY METAR and TAF weather

Enter ICAO airport designator
Station Type Date Time Source
LDPL METAR 2020/08/12 17:00 UTC NOAA

LDPL 121700Z 20003KT 170V240 CAVOK 29/20 Q1015 NOSIG


Station Type Date Time Source
LDPL Decoded METAR 2020/08/12 17:00 UTC NOAA

Pula Aerodrome, Croatia (LDPL) 45-54N 013-55E 63M
Aug 12, 2020 - 01:00 PM EDT / 2020.08.12 1700 UTC
Wind: from the SSW (200 degrees) at 3 MPH (3 KT) (direction variable):0
Visibility: greater than 7 mile(s):0
Temperature: 84 F (29 C)
Dew Point: 68 F (20 C)
Relative Humidity: 58%
Pressure (altimeter): 29.97 in. Hg (1015 hPa)
ob: LDPL 121700Z 20003KT 170V240 CAVOK 29/20 Q1015 NOSIG
cycle: 17

Station Type Date Time Source
LDPL TAF 2020/08/12 12:27 UTC NOAA

TAF LDPL 121125Z 1212/1312 28008KT CAVOK TX32/1212Z TN20/1303Z
BECMG 1216/1218 06006KT

Example: see airport list